Time;durP1;ratioP1;P1;durP2;ratioP2;P2;SDS_P1;SDS_P2;PMS_P1;PMS_P2;Temp;Humidity;BMP_temperature;BMP_pressure;BME280_temperature;BME280_humidity;BME280_pressure;Samples;Min_cycle;Max_cycle;Signal;HPM_P1;HPM_P2
2023/07/09 00:03:28;;;;;;;7.57;3.97;;;18.00;99.00;;;;;;10304243;28;20679;-89
2023/07/09 00:08:33;;;;;;;8.50;4.53;;;18.10;99.00;;;;;;10310842;28;20233;-90
2023/07/09 00:13:35;;;;;;;4.80;4.18;;;17.90;99.00;;;;;;10328931;28;20284;-89
2023/07/09 00:18:38;;;;;;;3.25;2.95;;;17.90;99.50;;;;;;10315660;28;20249;-89
2023/07/09 00:23:41;;;;;;;3.45;3.15;;;17.80;99.90;;;;;;10293591;28;20296;-89
2023/07/09 00:28:44;;;;;;;3.95;3.20;;;17.80;99.90;;;;;;10329068;28;20626;-89
2023/07/09 00:33:48;;;;;;;5.32;4.82;;;17.80;99.90;;;;;;10298058;28;20291;-89
2023/07/09 00:38:51;;;;;;;11.27;4.32;;;17.60;99.90;;;;;;10312181;28;20327;-89
2023/07/09 00:43:54;;;;;;;4.13;3.65;;;17.60;99.90;;;;;;10312016;28;20613;-89
2023/07/09 00:49:07;;;;;;;5.60;4.45;;;17.50;99.90;;;;;;10328468;28;20291;-89
2023/07/09 00:54:22;;;;;;;2.72;2.53;;;17.20;99.90;;;;;;10323302;28;20244;-89
2023/07/09 00:59:29;;;;;;;6.13;4.70;;;17.10;99.90;;;;;;10285467;28;20289;-89
2023/07/09 01:04:32;;;;;;;6.07;4.38;;;16.80;99.90;;;;;;10303007;28;20292;-89
2023/07/09 01:09:40;;;;;;;5.07;4.60;;;16.70;99.90;;;;;;10269839;28;20241;-89
2023/07/09 01:14:46;;;;;;;5.07;4.57;;;16.70;99.90;;;;;;10297143;28;20632;-89
2023/07/09 01:19:50;;;;;;;4.53;4.13;;;16.40;99.90;;;;;;10310722;28;20300;-89
2023/07/09 01:25:01;;;;;;;4.13;3.83;;;16.60;99.90;;;;;;10306332;28;20237;-89
2023/07/09 01:30:11;;;;;;;6.28;5.05;;;16.40;99.90;;;;;;10291247;28;20220;-89
2023/07/09 01:35:17;;;;;;;9.32;4.82;;;16.20;99.90;;;;;;10326787;28;20240;-89
2023/07/09 01:40:23;;;;;;;7.43;5.13;;;15.90;99.90;;;;;;10307562;28;20296;-89
2023/07/09 01:45:35;;;;;;;3.50;3.20;;;16.00;99.90;;;;;;10269773;28;20272;-89
2023/07/09 01:50:41;;;;;;;5.40;4.07;;;16.20;99.90;;;;;;10274536;28;20240;-89
2023/07/09 01:55:44;;;;;;;5.95;5.40;;;16.00;99.90;;;;;;10326903;28;20299;-89
2023/07/09 02:00:47;;;;;;;6.30;5.10;;;16.00;99.90;;;;;;10299718;28;20748;-89
2023/07/09 02:05:53;;;;;;;5.43;4.68;;;15.90;99.90;;;;;;10269907;28;20272;-89
2023/07/09 02:10:57;;;;;;;7.50;5.35;;;15.80;99.90;;;;;;10270059;28;20249;-89
2023/07/09 02:15:59;;;;;;;4.82;4.28;;;15.70;99.90;;;;;;10286278;28;20249;-89
2023/07/09 02:21:02;;;;;;;5.65;4.05;;;15.70;99.90;;;;;;10293448;28;20272;-89
2023/07/09 02:26:04;;;;;;;3.95;3.55;;;15.60;99.90;;;;;;10332920;28;20237;-89
2023/07/09 02:31:07;;;;;;;6.15;4.75;;;15.60;99.90;;;;;;10328329;28;20241;-89
2023/07/09 02:36:10;;;;;;;5.43;4.18;;;15.50;99.90;;;;;;10294232;28;20249;-89
2023/07/09 02:41:13;;;;;;;5.55;5.05;;;15.30;99.90;;;;;;10279949;28;20316;-89
2023/07/09 02:46:15;;;;;;;10.50;5.35;;;15.10;99.90;;;;;;10275218;28;20645;-89
2023/07/09 02:51:18;;;;;;;6.78;5.47;;;14.90;99.90;;;;;;10331471;28;20307;-88
2023/07/09 02:56:21;;;;;;;6.45;5.53;;;14.80;99.90;;;;;;10332744;28;20248;-89
2023/07/09 03:01:27;;;;;;;4.63;4.15;;;14.80;99.90;;;;;;10314940;28;20261;-89
2023/07/09 03:06:32;;;;;;;4.07;3.45;;;15.00;99.90;;;;;;10312725;28;20260;-89
2023/07/09 03:11:35;;;;;;;3.35;3.05;;;15.50;99.90;;;;;;10322509;28;20241;-89
2023/07/09 03:16:38;;;;;;;5.35;4.53;;;15.90;99.90;;;;;;10274925;28;20249;-89
2023/07/09 03:21:40;;;;;;;4.18;3.80;;;16.20;99.90;;;;;;10298348;28;20335;-89
2023/07/09 03:26:43;;;;;;;8.02;4.53;;;16.30;99.90;;;;;;10292464;28;20230;-90
2023/07/09 03:31:46;;;;;;;10.27;4.90;;;16.40;99.90;;;;;;10315835;28;20241;-90
2023/07/09 03:36:48;;;;;;;4.40;3.80;;;16.20;99.90;;;;;;10274030;28;20315;-90
2023/07/09 03:41:51;;;;;;;5.03;3.70;;;16.20;99.90;;;;;;10307236;28;20746;-90
2023/07/09 03:46:53;;;;;;;3.97;3.58;;;16.20;99.90;;;;;;10331288;28;21012;-90
2023/07/09 03:51:56;;;;;;;4.07;3.42;;;16.30;99.90;;;;;;10312205;28;20651;-91
2023/07/09 03:56:58;;;;;;;2.67;2.47;;;16.50;99.90;;;;;;10328776;28;20299;-91
2023/07/09 04:02:03;;;;;;;4.70;3.60;;;16.60;99.90;;;;;;10312736;28;20308;-91
2023/07/09 04:07:05;;;;;;;5.22;3.20;;;16.70;99.90;;;;;;10290065;28;20614;-91
2023/07/09 04:12:09;;;;;;;5.10;2.97;;;16.90;99.90;;;;;;10319871;28;20688;-91
2023/07/09 04:17:12;;;;;;;4.65;3.60;;;17.10;99.90;;;;;;10298562;28;20380;-90
2023/07/09 04:22:14;;;;;;;4.00;2.70;;;17.20;99.90;;;;;;10297629;28;20317;-91
2023/07/09 04:27:17;;;;;;;3.03;2.72;;;17.30;99.90;;;;;;10289384;28;20604;-90
2023/07/09 04:32:21;;;;;;;2.70;2.50;;;17.50;99.90;;;;;;10306331;28;20315;-90
2023/07/09 04:37:24;;;;;;;3.40;2.50;;;17.70;99.90;;;;;;10329293;28;20248;-90
2023/07/09 04:42:26;;;;;;;4.43;4.03;;;17.70;99.90;;;;;;10285468;28;20719;-90
2023/07/09 04:47:29;;;;;;;3.80;3.25;;;17.70;99.90;;;;;;10306855;28;20236;-90
2023/07/09 04:52:31;;;;;;;4.65;3.80;;;17.80;99.90;;;;;;10326534;28;20295;-90
2023/07/09 04:57:34;;;;;;;2.83;2.53;;;17.90;99.90;;;;;;10310702;28;20272;-90
2023/07/09 05:02:37;;;;;;;5.22;2.67;;;18.10;99.90;;;;;;10325936;28;20753;-90
2023/07/09 05:07:39;;;;;;;3.40;3.10;;;18.40;99.90;;;;;;10327387;28;20236;-90
2023/07/09 05:12:53;;;;;;;3.22;2.92;;;18.50;99.10;;;;;;10292543;28;20240;-90
2023/07/09 05:17:57;;;;;;;3.55;2.42;;;18.60;98.40;;;;;;10327164;28;20602;-90
2023/07/09 05:23:00;;;;;;;3.00;2.70;;;18.70;97.90;;;;;;10317434;28;20289;-90
2023/07/09 05:28:03;;;;;;;5.97;2.85;;;18.90;97.70;;;;;;10326937;28;20295;-90
2023/07/09 05:33:05;;;;;;;3.05;2.70;;;19.00;97.10;;;;;;10287155;28;20292;-90
2023/07/09 05:38:08;;;;;;;4.30;3.20;;;19.10;96.90;;;;;;10288130;28;20624;-90
2023/07/09 05:43:11;;;;;;;3.28;2.40;;;19.20;96.50;;;;;;10290321;28;20256;-90
2023/07/09 05:48:13;;;;;;;3.78;2.80;;;19.30;96.20;;;;;;10310685;28;20307;-90
2023/07/09 05:53:16;;;;;;;2.20;2.00;;;19.50;95.30;;;;;;10302130;28;20249;-90
2023/07/09 05:58:18;;;;;;;2.50;2.30;;;19.70;95.20;;;;;;10286817;28;20241;-90
2023/07/09 06:03:22;;;;;;;3.80;2.55;;;19.90;94.50;;;;;;10308932;28;20319;-91
2023/07/09 06:08:26;;;;;;;2.45;2.25;;;19.90;92.70;;;;;;10325764;28;20622;-90
2023/07/09 06:13:33;;;;;;;3.03;2.17;;;20.00;92.70;;;;;;10295465;28;20245;-90
2023/07/09 06:18:36;;;;;;;2.90;1.92;;;20.30;92.10;;;;;;10317489;28;20240;-90
2023/07/09 06:23:38;;;;;;;4.07;2.67;;;20.40;91.10;;;;;;10315701;28;20264;-90
2023/07/09 06:28:41;;;;;;;4.20;2.30;;;20.60;90.20;;;;;;10300092;28;20285;-90
2023/07/09 06:33:44;;;;;;;2.15;1.95;;;20.80;89.30;;;;;;10290756;28;20241;-90
2023/07/09 06:38:46;;;;;;;4.50;2.20;;;21.00;86.00;;;;;;10285693;28;20282;-89
2023/07/09 06:43:49;;;;;;;6.30;2.00;;;21.10;87.50;;;;;;10302032;28;20785;-90
2023/07/09 06:48:51;;;;;;;4.05;2.40;;;21.30;85.80;;;;;;10316386;28;20232;-89
2023/07/09 06:53:54;;;;;;;2.13;1.92;;;21.30;86.10;;;;;;10303219;28;20244;-89
2023/07/09 06:58:57;;;;;;;1.65;1.55;;;21.40;84.40;;;;;;10273017;28;20237;-90
2023/07/09 07:04:00;;;;;;;3.83;2.38;;;21.60;82.30;;;;;;10317771;28;20320;-90
2023/07/09 07:09:03;;;;;;;2.00;1.85;;;21.70;78.50;;;;;;10292900;28;20279;-89
2023/07/09 07:14:06;;;;;;;2.03;1.83;;;21.90;77.70;;;;;;10326163;28;20264;-88
2023/07/09 07:19:09;;;;;;;2.72;2.20;;;22.10;77.20;;;;;;10331032;28;20299;-89
2023/07/09 07:24:12;;;;;;;2.97;1.90;;;22.30;69.30;;;;;;10329006;28;20324;-89
2023/07/09 07:29:15;;;;;;;2.40;2.20;;;22.50;72.70;;;;;;10322963;28;20242;-89
2023/07/09 07:34:18;;;;;;;2.30;2.00;;;22.70;69.20;;;;;;10309072;28;20626;-89
2023/07/09 07:39:20;;;;;;;2.13;1.75;;;23.00;65.50;;;;;;10306647;28;20264;-89
2023/07/09 07:44:23;;;;;;;3.13;2.22;;;23.10;64.80;;;;;;10298082;28;20320;-89
2023/07/09 07:49:27;;;;;;;1.98;1.88;;;23.30;62.50;;;;;;10291408;28;20232;-89
2023/07/09 07:54:31;;;;;;;1.88;1.60;;;23.50;63.70;;;;;;10310987;28;20312;-89
2023/07/09 07:59:34;;;;;;;2.25;1.70;;;23.70;57.10;;;;;;10307879;28;20244;-89
2023/07/09 08:04:38;;;;;;;3.78;1.90;;;23.90;52.30;;;;;;10313982;28;20256;-89
2023/07/09 08:09:40;;;;;;;2.47;1.60;;;24.00;49.70;;;;;;10330579;28;20209;-88
2023/07/09 08:14:46;;;;;;;2.42;2.13;;;24.20;52.90;;;;;;10320631;28;20280;-90
2023/07/09 08:19:51;;;;;;;3.95;2.35;;;24.30;53.10;;;;;;10310884;28;20295;-90
2023/07/09 08:24:54;;;;;;;1.63;1.52;;;24.40;49.80;;;;;;10311840;28;20704;-90
2023/07/09 08:29:56;;;;;;;1.73;1.63;;;24.50;48.30;;;;;;10325747;28;20681;-90
2023/07/09 08:34:59;;;;;;;1.85;1.75;;;24.70;47.90;;;;;;10328102;28;20249;-90
2023/07/09 08:40:09;;;;;;;1.77;1.67;;;24.60;44.90;;;;;;10311270;28;20284;-90
2023/07/09 08:45:32;;;;;;;5.03;2.20;;;24.80;46.20;;;;;;10325424;28;20264;-89
2023/07/09 08:50:59;;;;;;;2.40;1.90;;;24.90;39.20;;;;;;10297996;28;20280;-90
2023/07/09 08:56:02;;;;;;;2.28;2.08;;;25.00;37.70;;;;;;10324423;28;20251;-90
2023/07/09 09:01:20;;;;;;;2.20;1.73;;;24.90;36.40;;;;;;10305558;28;20734;-89
2023/07/09 09:06:28;;;;;;;1.67;1.58;;;24.90;34.60;;;;;;10327658;28;20240;-89
2023/07/09 09:11:41;;;;;;;2.53;2.33;;;25.00;38.50;;;;;;10311503;28;20284;-89
2023/07/09 09:16:46;;;;;;;1.90;1.80;;;25.20;36.70;;;;;;10325895;28;20299;-90
2023/07/09 09:21:55;;;;;;;7.18;2.45;;;25.30;37.50;;;;;;10298175;28;20273;-90
2023/07/09 09:26:59;;;;;;;3.17;2.45;;;25.40;32.70;;;;;;10305075;28;20240;-91
2023/07/09 09:32:23;;;;;;;2.25;1.98;;;25.50;31.70;;;;;;10312232;28;20702;-91
2023/07/09 09:37:31;;;;;;;2.22;2.03;;;25.60;36.40;;;;;;10294424;28;20275;-91
2023/07/09 09:42:34;;;;;;;2.95;2.00;;;25.60;32.00;;;;;;10326400;28;20320;-91
2023/07/09 09:47:36;;;;;;;5.30;3.05;;;25.60;28.60;;;;;;10306964;28;20691;-91
2023/07/09 09:52:39;;;;;;;3.13;2.30;;;25.70;26.10;;;;;;10325798;28;20636;-91
2023/07/09 09:57:49;;;;;;;8.20;2.92;;;25.80;25.20;;;;;;10326382;28;20232;-90
2023/07/09 10:03:01;;;;;;;4.07;2.85;;;25.90;27.30;;;;;;10324725;28;20257;-90
2023/07/09 10:08:11;;;;;;;5.80;2.53;;;26.00;30.00;;;;;;10306099;28;20754;-91
2023/07/09 10:13:23;;;;;;;2.47;2.28;;;26.10;27.30;;;;;;10312166;28;20688;-91
2023/07/09 10:18:34;;;;;;;2.15;1.95;;;26.20;28.30;;;;;;10303097;28;20317;-91
2023/07/09 10:24:03;;;;;;;3.10;2.30;;;26.20;28.60;;;;;;10299964;28;20644;-91
2023/07/09 10:29:20;;;;;;;5.00;2.50;;;26.30;20.80;;;;;;10315622;28;20264;-91
2023/07/09 10:34:35;;;;;;;4.75;2.38;;;26.20;19.80;;;;;;10326211;28;20244;-92
2023/07/09 10:39:41;;;;;;;3.10;2.30;;;26.20;16.80;;;;;;10303833;28;20312;-90
2023/07/09 10:44:51;;;;;;;2.30;2.10;;;26.30;21.60;;;;;;10334547;28;20314;-90
2023/07/09 10:49:55;;;;;;;2.95;2.25;;;26.30;19.00;;;;;;10328680;28;20682;-90
2023/07/09 10:55:20;;;;;;;2.63;2.08;;;26.40;19.90;;;;;;10302120;28;20300;-91
2023/07/09 11:00:32;;;;;;;3.30;2.22;;;26.50;24.80;;;;;;10293435;28;20316;-91
2023/07/09 11:05:35;;;;;;;1.40;1.30;;;26.50;19.10;;;;;;10312444;28;20315;-90
2023/07/09 11:10:46;;;;;;;2.55;2.35;;;26.50;19.90;;;;;;10296803;28;20238;-91
2023/07/09 11:15:53;;;;;;;2.40;2.22;;;26.60;18.90;;;;;;10291724;28;20299;-90
2023/07/09 11:21:05;;;;;;;2.22;1.90;;;26.60;21.10;;;;;;10329133;28;20233;-90
2023/07/09 11:26:22;;;;;;;3.67;2.30;;;26.70;22.40;;;;;;10324280;28;20237;-90
2023/07/09 11:31:34;;;;;;;2.55;2.22;;;26.70;19.20;;;;;;10330283;28;20767;-90
2023/07/09 11:37:11;;;;;;;4.45;2.35;;;26.70;20.80;;;;;;10331103;28;20658;-90
2023/07/09 11:42:34;;;;;;;2.35;2.08;;;26.60;21.10;;;;;;10320905;28;20280;-90
2023/07/09 11:47:52;;;;;;;2.03;1.42;;;26.70;20.40;;;;;;10321447;28;20344;-87
2023/07/09 11:52:58;;;;;;;5.60;2.35;;;26.60;19.20;;;;;;10290759;28;20240;-87
2023/07/09 11:58:03;;;;;;;1.95;1.75;;;26.40;17.60;;;;;;10319022;28;20245;-88
2023/07/09 12:03:10;;;;;;;3.03;2.72;;;26.50;17.30;;;;;;10330027;28;20272;-88
2023/07/09 12:08:16;;;;;;;4.07;2.33;;;26.60;18.90;;;;;;10329413;28;20236;-88
2023/07/09 12:13:18;;;;;;;2.25;1.80;;;26.80;17.70;;;;;;10328345;28;20244;-88
2023/07/09 12:18:21;;;;;;;2.13;1.80;;;26.90;17.10;;;;;;10330462;28;20652;-88
2023/07/09 12:23:32;;;;;;;2.35;2.03;;;27.00;17.10;;;;;;10329738;28;20323;-88
2023/07/09 12:28:36;;;;;;;2.38;2.10;;;27.10;16.50;;;;;;10311850;28;20803;-88
2023/07/09 12:33:46;;;;;;;3.47;2.42;;;27.20;16.00;;;;;;10329456;28;20653;-88
2023/07/09 12:38:50;;;;;;;7.10;2.75;;;27.20;17.00;;;;;;10329036;28;20674;-88
2023/07/09 12:43:54;;;;;;;2.78;2.42;;;27.20;14.40;;;;;;10329245;28;20268;-88
2023/07/09 12:48:58;;;;;;;4.25;1.88;;;27.20;15.00;;;;;;10327717;28;20232;-88
2023/07/09 12:54:11;;;;;;;2.53;2.22;;;27.20;15.10;;;;;;10287699;28;20717;-89
2023/07/09 12:59:21;;;;;;;2.25;2.05;;;27.20;14.10;;;;;;9942767;28;10000041;-88
2023/07/09 13:04:32;;;;;;;2.00;1.83;;;27.20;14.60;;;;;;10326506;28;20256;-88
2023/07/09 13:09:34;;;;;;;4.70;2.95;;;27.20;15.10;;;;;;10325754;28;20240;-88
2023/07/09 13:14:37;;;;;;;2.20;2.00;;;27.30;15.30;;;;;;10289522;28;20631;-88
2023/07/09 13:19:39;;;;;;;3.85;2.28;;;27.40;13.50;;;;;;10283880;28;20245;-88
2023/07/09 13:24:42;;;;;;;2.63;2.33;;;27.20;15.00;;;;;;10304249;28;20674;-89
2023/07/09 13:29:46;;;;;;;2.92;2.42;;;27.40;15.00;;;;;;10305942;28;20275;-88
2023/07/09 13:34:49;;;;;;;4.05;2.22;;;27.30;16.30;;;;;;10325110;28;20240;-89
2023/07/09 13:39:51;;;;;;;2.97;2.33;;;27.30;14.50;;;;;;10301319;28;20307;-89
2023/07/09 13:44:55;;;;;;;2.40;2.15;;;27.40;15.10;;;;;;10334274;28;20314;-89
2023/07/09 13:49:58;;;;;;;3.40;1.95;;;27.40;11.80;;;;;;10321377;28;20295;-89
2023/07/09 13:55:01;;;;;;;2.08;1.92;;;27.50;12.30;;;;;;10283975;28;20241;-89
2023/07/09 14:00:04;;;;;;;4.10;1.92;;;27.60;10.30;;;;;;10286666;28;20241;-88
2023/07/09 14:05:12;;;;;;;3.47;1.92;;;27.60;10.20;;;;;;10288279;28;20789;-88
2023/07/09 14:10:18;;;;;;;2.50;2.30;;;27.70;14.60;;;;;;10304312;28;20302;-88
2023/07/09 14:15:21;;;;;;;2.17;1.77;;;27.60;12.60;;;;;;10312565;28;20788;-88
2023/07/09 14:20:23;;;;;;;2.15;1.38;;;27.70;11.30;;;;;;10316505;28;20240;-88
2023/07/09 14:25:28;;;;;;;4.70;2.20;;;27.80;10.80;;;;;;10333614;28;20268;-88
2023/07/09 14:30:30;;;;;;;2.20;2.00;;;27.80;13.50;;;;;;10313969;28;20264;-88
2023/07/09 14:35:35;;;;;;;1.70;1.48;;;27.70;15.40;;;;;;10315541;28;20298;-88
2023/07/09 14:40:39;;;;;;;2.53;2.28;;;27.70;12.20;;;;;;10283448;28;20320;-88
2023/07/09 14:45:42;;;;;;;3.30;2.00;;;27.80;11.90;;;;;;10292368;28;20269;-87
2023/07/09 14:50:46;;;;;;;2.05;1.85;;;27.70;10.90;;;;;;10286092;28;20241;-88
2023/07/09 14:55:48;;;;;;;1.75;1.63;;;27.70;12.80;;;;;;10293174;28;20308;-88
2023/07/09 15:00:51;;;;;;;4.55;1.73;;;27.70;10.80;;;;;;10293647;28;20700;-89
2023/07/09 15:05:54;;;;;;;4.47;2.20;;;27.90;11.10;;;;;;10277458;28;20256;-87
2023/07/09 15:10:57;;;;;;;3.47;2.30;;;28.00;10.60;;;;;;10310956;28;20245;-88
2023/07/09 15:16:00;;;;;;;2.45;2.25;;;28.00;9.80;;;;;;10313546;28;20245;-88
2023/07/09 15:21:04;;;;;;;4.82;1.95;;;28.00;8.20;;;;;;10330287;28;20299;-88
2023/07/09 15:26:15;;;;;;;3.05;2.00;;;28.00;8.50;;;;;;10317104;28;20260;-90
2023/07/09 15:31:17;;;;;;;1.73;1.27;;;27.90;9.40;;;;;;10315288;28;20249;-93
2023/07/09 15:36:20;;;;;;;2.60;1.70;;;28.00;9.80;;;;;;10330983;28;20241;-93
2023/07/09 15:41:23;;;;;;;3.10;1.60;;;27.80;10.80;;;;;;10331712;28;20656;-95
2023/07/09 15:46:25;;;;;;;2.15;1.83;;;27.60;8.90;;;;;;10331936;28;20261;-94
2023/07/09 15:51:28;;;;;;;2.30;2.10;;;27.50;11.00;;;;;;10314979;28;20291;-94
2023/07/09 15:56:33;;;;;;;2.53;1.90;;;27.50;10.80;;;;;;10314055;28;20330;-93
2023/07/09 16:01:35;;;;;;;2.58;1.85;;;27.40;11.10;;;;;;10313298;28;20213;-93
2023/07/09 16:06:39;;;;;;;2.38;2.17;;;27.30;11.90;;;;;;10313374;28;20260;-93
2023/07/09 16:11:48;;;;;;;1.77;1.67;;;27.30;11.80;;;;;;10313237;28;20240;-94
2023/07/09 16:16:53;;;;;;;3.33;1.38;;;27.20;12.10;;;;;;10313662;28;20256;-94
2023/07/09 16:22:06;;;;;;;2.05;1.77;;;27.30;9.50;;;;;;10313017;28;20310;-95
2023/07/09 16:27:14;;;;;;;1.95;1.65;;;27.30;11.70;;;;;;10313161;28;20256;-94
2023/07/09 16:32:17;;;;;;;1.90;1.60;;;27.40;12.40;;;;;;10329588;28;20306;-94
2023/07/09 16:37:23;;;;;;;2.25;1.90;;;27.50;11.90;;;;;;10331586;28;20548;-95
2023/07/09 16:42:26;;;;;;;2.30;1.65;;;27.60;11.70;;;;;;10313785;28;20232;-95
2023/07/09 16:47:30;;;;;;;2.13;1.75;;;27.70;8.60;;;;;;10313861;28;20205;-95
2023/07/09 16:52:33;;;;;;;1.98;1.63;;;27.60;12.60;;;;;;10330037;28;20627;-95
2023/07/09 16:57:35;;;;;;;1.98;1.30;;;27.60;11.90;;;;;;10327900;28;20249;-95
2023/07/09 17:02:39;;;;;;;3.95;1.52;;;27.60;13.00;;;;;;10316295;28;20209;-96
2023/07/09 17:07:42;;;;;;;2.00;1.75;;;27.60;11.60;;;;;;10333912;28;20200;-96
2023/07/09 17:12:46;;;;;;;2.80;2.15;;;27.50;13.80;;;;;;10317648;28;20263;-96
2023/07/09 17:17:49;;;;;;;2.20;1.90;;;27.50;13.40;;;;;;10315545;28;20221;-96
2023/07/09 17:22:54;;;;;;;1.63;1.42;;;27.30;14.00;;;;;;10314262;28;20282;-96
2023/07/09 17:27:58;;;;;;;4.03;2.10;;;27.20;14.30;;;;;;10297128;28;20212;-96
2023/07/09 17:33:01;;;;;;;4.20;1.60;;;27.20;12.60;;;;;;10312264;28;20228;-95
2023/07/09 17:38:05;;;;;;;2.83;1.30;;;27.10;14.10;;;;;;10331891;28;20232;-96
2023/07/09 17:43:19;;;;;;;4.80;1.92;;;26.90;10.90;;;;;;10308943;28;20261;-96
2023/07/09 17:48:29;;;;;;;7.60;2.13;;;26.80;14.80;;;;;;10339957;28;20201;-96
2023/07/09 17:53:35;;;;;;;2.42;1.50;;;26.70;15.30;;;;;;10316067;28;20209;-96
2023/07/09 17:58:41;;;;;;;2.72;1.95;;;26.50;16.30;;;;;;10293837;28;20209;-96
2023/07/09 18:03:43;;;;;;;1.15;1.00;;;26.30;14.40;;;;;;10297203;28;20428;-96
2023/07/09 18:08:46;;;;;;;1.70;1.17;;;26.10;15.40;;;;;;10285992;28;20601;-96
2023/07/09 18:13:49;;;;;;;4.32;1.30;;;25.70;14.90;;;;;;10304049;28;20261;-96
2023/07/09 18:18:51;;;;;;;3.20;1.63;;;25.30;17.60;;;;;;10321940;28;20213;-96
2023/07/09 18:23:54;;;;;;;6.57;1.27;;;25.00;19.00;;;;;;10307420;28;20225;-96
2023/07/09 18:28:56;;;;;;;4.88;1.50;;;24.80;20.00;;;;;;10317339;28;20302;-96
2023/07/09 18:33:59;;;;;;;6.10;1.65;;;24.50;21.70;;;;;;9989113;28;10000266;-96
2023/07/09 18:39:01;;;;;;;3.25;1.55;;;24.20;21.80;;;;;;10308826;28;20292;-96
2023/07/09 18:44:19;;;;;;;3.90;1.48;;;24.00;23.40;;;;;;10299012;28;20229;-96
2023/07/09 18:49:22;;;;;;;2.10;1.90;;;23.60;24.90;;;;;;10319248;28;20205;-96
2023/07/09 18:54:24;;;;;;;3.40;1.58;;;23.30;25.80;;;;;;10314956;28;20272;-96
2023/07/09 18:59:30;;;;;;;4.43;1.95;;;23.20;27.00;;;;;;10295471;28;20213;-96
2023/07/09 19:04:33;;;;;;;9.57;2.15;;;22.80;27.40;;;;;;10353081;28;20288;-96
2023/07/09 19:09:36;;;;;;;5.97;1.50;;;22.50;29.40;;;;;;10336062;28;20291;-96
2023/07/09 19:14:40;;;;;;;3.05;1.30;;;22.30;33.20;;;;;;10327067;28;20221;-96
2023/07/09 19:19:43;;;;;;;8.80;1.98;;;22.10;35.70;;;;;;10320007;28;20209;-95
2023/07/09 19:24:48;;;;;;;2.85;1.42;;;22.00;38.50;;;;;;10296112;28;20217;-96
2023/07/09 19:29:51;;;;;;;13.57;2.28;;;21.90;42.40;;;;;;10337569;28;20354;-96
2023/07/09 19:34:55;;;;;;;4.32;2.00;;;21.80;45.10;;;;;;10308520;28;20216;-96
2023/07/09 19:39:57;;;;;;;7.82;1.60;;;21.50;47.50;;;;;;10313023;28;20265;-96
2023/07/09 19:45:00;;;;;;;11.02;2.28;;;21.20;50.40;;;;;;10331086;28;20256;-96
2023/07/09 19:50:29;;;;;;;5.90;2.42;;;20.90;53.70;;;;;;10315841;28;20233;-96
2023/07/09 19:55:34;;;;;;;6.13;1.80;;;20.80;57.20;;;;;;10318156;28;20209;-96
2023/07/09 20:00:37;;;;;;;3.15;1.52;;;20.60;61.10;;;;;;10301253;28;20876;-96
2023/07/09 20:05:39;;;;;;;1.10;1.00;;;20.50;63.20;;;;;;10315237;28;20311;-95
2023/07/09 20:10:42;;;;;;;4.82;1.92;;;20.50;65.20;;;;;;10310744;28;20287;-96
2023/07/09 20:15:45;;;;;;;12.75;2.78;;;20.40;65.20;;;;;;10303248;28;20703;-95
2023/07/09 20:20:51;;;;;;;6.32;1.77;;;20.20;64.60;;;;;;10321319;28;20244;-93
2023/07/09 20:25:54;;;;;;;4.05;2.50;;;20.10;67.90;;;;;;10326749;28;20316;-95
2023/07/09 20:30:57;;;;;;;4.38;2.42;;;19.90;69.50;;;;;;10310687;28;20241;-95
2023/07/09 20:36:00;;;;;;;3.22;2.22;;;19.70;72.60;;;;;;10294978;28;20272;-94
2023/07/09 20:41:03;;;;;;;3.10;1.92;;;19.50;76.20;;;;;;10309236;28;20326;-94
2023/07/09 20:46:09;;;;;;;3.08;1.20;;;19.60;77.50;;;;;;10308212;28;20265;-95
2023/07/09 20:51:11;;;;;;;5.88;1.80;;;19.50;81.10;;;;;;10325085;28;20244;-94
2023/07/09 20:56:14;;;;;;;22.38;4.03;;;19.50;86.30;;;;;;10326447;28;20284;-94
2023/07/09 21:01:17;;;;;;;18.70;3.75;;;19.50;86.30;;;;;;10308908;28;20242;-93
2023/07/09 21:06:20;;;;;;;6.43;2.38;;;18.90;88.00;;;;;;10301540;28;20265;-94
2023/07/09 21:11:23;;;;;;;8.68;2.95;;;19.00;89.90;;;;;;10300808;28;20284;-95
2023/07/09 21:16:25;;;;;;;8.77;2.67;;;18.80;89.50;;;;;;10310647;28;20221;-95
2023/07/09 21:21:28;;;;;;;6.07;2.28;;;18.80;91.90;;;;;;10312580;28;20635;-94
2023/07/09 21:26:31;;;;;;;5.75;3.17;;;18.80;92.60;;;;;;10332071;28;20256;-93
2023/07/09 21:31:33;;;;;;;12.00;3.15;;;18.70;93.10;;;;;;10275632;28;20244;-95
2023/07/09 21:36:36;;;;;;;10.98;2.80;;;18.60;93.60;;;;;;10273173;28;20278;-96
2023/07/09 21:41:38;;;;;;;12.10;3.33;;;18.40;94.20;;;;;;10296984;28;20233;-95
2023/07/09 21:46:43;;;;;;;5.38;2.85;;;18.30;94.40;;;;;;10313625;28;20252;-94
2023/07/09 21:51:46;;;;;;;11.27;3.08;;;18.20;95.60;;;;;;10311043;28;20665;-94
2023/07/09 21:56:49;;;;;;;7.20;2.92;;;18.20;96.00;;;;;;10330325;28;20209;-94
2023/07/09 22:01:54;;;;;;;2.85;2.03;;;18.10;95.80;;;;;;10330360;28;20561;-95
2023/07/09 22:06:58;;;;;;;1.83;1.55;;;18.10;96.70;;;;;;10310557;28;20585;-94
2023/07/09 22:12:01;;;;;;;5.20;1.90;;;18.10;98.10;;;;;;10330087;28;20201;-95
2023/07/09 22:17:07;;;;;;;5.55;1.95;;;;;;;;;;10310954;28;20691;-95
2023/07/09 22:22:15;;;;;;;4.60;1.77;;;;;;;;;;10305567;28;20584;-94
2023/07/09 22:27:18;;;;;;;5.15;1.55;;;;;;;;;;10312752;28;20252;-95
2023/07/09 22:32:26;;;;;;;4.47;2.58;;;;;;;;;;10329387;28;20303;-95
2023/07/09 22:37:33;;;;;;;7.10;2.38;;;17.50;98.40;;;;;;10314469;28;20236;-95
2023/07/09 22:42:36;;;;;;;4.05;1.90;;;17.70;99.90;;;;;;10337060;28;20264;-94
2023/07/09 22:47:40;;;;;;;2.33;1.88;;;17.40;99.90;;;;;;10336959;28;20623;-94
2023/07/09 22:52:44;;;;;;;7.18;2.05;;;17.50;99.90;;;;;;10304871;28;20570;-95
2023/07/09 22:57:46;;;;;;;3.92;2.00;;;17.30;99.90;;;;;;10321964;28;20576;-94
2023/07/09 23:02:49;;;;;;;4.90;2.55;;;17.30;99.90;;;;;;10318052;28;20210;-95
2023/07/09 23:07:56;;;;;;;5.00;2.45;;;17.10;99.90;;;;;;10333881;28;20644;-95
2023/07/09 23:12:59;;;;;;;4.00;1.77;;;17.10;99.90;;;;;;10309169;28;20673;-94
2023/07/09 23:18:10;;;;;;;1.90;1.35;;;17.10;99.90;;;;;;10334071;28;20213;-96
2023/07/09 23:23:13;;;;;;;8.23;2.65;;;17.10;99.90;;;;;;10333292;28;20221;-95
2023/07/09 23:28:16;;;;;;;2.10;1.88;;;17.10;99.90;;;;;;10316389;28;20643;-95
2023/07/09 23:33:32;;;;;;;2.78;1.60;;;17.10;99.90;;;;;;10327423;28;20217;-95
2023/07/09 23:38:38;;;;;;;2.58;1.73;;;17.10;99.80;;;;;;10323878;28;20260;-94
2023/07/09 23:43:41;;;;;;;4.47;2.47;;;17.00;99.90;;;;;;10332280;28;20245;-95
2023/07/09 23:48:45;;;;;;;3.58;2.05;;;16.90;99.90;;;;;;10331920;28;20582;-95
2023/07/09 23:53:52;;;;;;;2.85;2.00;;;16.90;99.90;;;;;;10334616;28;20575;-93
2023/07/09 23:58:56;;;;;;;5.38;2.55;;;16.90;99.90;;;;;;10334057;28;20209;-95
